Time;durP1;ratioP1;P1;durP2;ratioP2;P2;SDS_P1;SDS_P2;PMS_P1;PMS_P2;Temp;Humidity;BMP_temperature;BMP_pressure;BME280_temperature;BME280_humidity;BME280_pressure;Samples;Min_cycle;Max_cycle;Signal;HPM_P1;HPM_P2
2021/04/05 00:01:37;;;;;;;39.63;16.93;;;;;;;3.40;66.12;99895.38;8916078;33;20229;-73
2021/04/05 00:06:39;;;;;;;32.20;15.93;;;;;;;3.17;66.63;99871.97;8916265;33;20229;-72
2021/04/05 00:11:42;;;;;;;40.30;17.93;;;;;;;3.51;66.09;99865.50;8915446;33;20275;-72
2021/04/05 00:16:46;;;;;;;32.55;14.10;;;;;;;3.03;67.77;99848.91;8915719;33;20918;-73
2021/04/05 00:21:48;;;;;;;35.33;16.60;;;;;;;3.11;68.03;99835.19;8890396;33;21397;-73
2021/04/05 00:26:51;;;;;;;22.50;10.80;;;;;;;3.03;67.85;99819.72;8916097;33;20217;-73
2021/04/05 00:31:54;;;;;;;41.77;15.97;;;;;;;3.18;67.73;99808.22;8915253;33;21032;-73
2021/04/05 00:36:56;;;;;;;41.20;18.37;;;;;;;3.49;66.83;99785.97;8890653;33;21362;-72
2021/04/05 00:41:59;;;;;;;42.10;18.30;;;;;;;3.26;67.64;99775.88;8915557;33;20790;-73
2021/04/05 00:47:02;;;;;;;33.60;16.07;;;;;;;3.10;67.97;99754.72;8915796;33;20225;-72
2021/04/05 00:52:06;;;;;;;47.47;19.33;;;;;;;3.04;68.81;99737.38;8915262;33;20224;-71
2021/04/05 00:57:09;;;;;;;38.80;18.13;;;;;;;2.98;68.96;99718.31;8915300;33;20225;-72
2021/04/05 01:02:13;;;;;;;36.33;15.20;;;;;;;2.77;69.78;99701.84;8914791;33;20257;-71
2021/04/05 01:07:15;;;;;;;31.57;12.70;;;;;;;2.87;70.01;99680.94;8914886;33;20237;-71
2021/04/05 01:12:18;;;;;;;38.70;15.10;;;;;;;3.07;69.25;99656.69;8915094;33;20229;-72
2021/04/05 01:17:20;;;;;;;45.13;18.53;;;;;;;3.05;69.33;99632.94;8864811;33;20246;-72
2021/04/05 01:22:23;;;;;;;46.27;17.70;;;;;;;3.09;69.45;99633.59;8855069;33;20283;-71
2021/04/05 01:27:26;;;;;;;33.27;13.70;;;;;;;2.97;69.54;99605.16;8854873;33;20226;-71
2021/04/05 01:32:28;;;;;;;42.30;16.63;;;;;;;3.21;69.26;99592.16;8854261;33;20222;-72
2021/04/05 01:37:31;;;;;;;27.10;12.40;;;;;;;3.11;69.33;99577.78;8854428;33;20222;-72
2021/04/05 01:42:33;;;;;;;28.23;13.03;;;;;;;3.29;68.85;99571.28;8854274;33;20226;-71
2021/04/05 01:47:36;;;;;;;34.83;15.70;;;;;;;3.13;69.68;99589.16;8854391;33;20304;-72
2021/04/05 01:52:41;;;;;;;37.37;17.30;;;;;;;3.32;69.24;99547.22;8853775;33;20241;-72
2021/04/05 01:57:44;;;;;;;32.00;13.20;;;;;;;3.22;69.18;99538.97;8854379;33;20226;-72
2021/04/05 02:02:47;;;;;;;40.97;18.97;;;;;;;3.35;68.87;99524.94;8853448;33;20229;-72
2021/04/05 02:07:51;;;;;;;36.77;15.40;;;;;;;3.39;68.97;99521.13;8853584;33;20226;-72
2021/04/05 02:12:55;;;;;;;36.23;15.03;;;;;;;3.21;68.97;99516.06;8853460;33;20250;-72
2021/04/05 02:17:57;;;;;;;33.40;16.17;;;;;;;3.52;68.21;99479.53;8910507;33;20637;-72
2021/04/05 02:23:00;;;;;;;34.92;14.60;;;;;;;3.43;68.72;99480.16;8912821;33;20233;-72
2021/04/05 02:28:05;;;;;;;32.73;14.17;;;;;;;3.40;68.79;99475.91;8913049;33;20232;-73
2021/04/05 02:33:07;;;;;;;43.33;14.60;;;;;;;3.36;68.71;99463.75;8912521;33;20240;-72
2021/04/05 02:38:11;;;;;;;34.17;15.17;;;;;;;3.42;68.71;99457.19;8913603;33;20221;-72
2021/04/05 02:43:14;;;;;;;35.45;14.50;;;;;;;3.67;68.15;99453.75;8912540;33;20741;-72
2021/04/05 02:48:18;;;;;;;32.30;13.13;;;;;;;3.55;68.57;99451.94;8912595;33;20765;-72
2021/04/05 02:53:22;;;;;;;23.67;12.15;;;;;;;3.71;68.06;99442.81;8912575;33;20312;-72
2021/04/05 02:58:24;;;;;;;24.50;9.70;;;;;;;3.85;67.60;99414.47;8912846;33;20225;-71
2021/04/05 03:03:26;;;;;;;31.57;14.33;;;;;;;3.79;68.05;99399.81;8912222;33;20222;-71
2021/04/05 03:08:29;;;;;;;29.50;11.23;;;;;;;3.66;68.28;99407.75;8912079;33;20233;-71
2021/04/05 03:13:36;;;;;;;31.23;12.53;;;;;;;3.79;67.77;99373.25;8912829;33;20304;-71
2021/04/05 03:18:39;;;;;;;31.02;14.13;;;;;;;3.94;67.79;99366.84;8912071;33;20229;-72
2021/04/05 03:23:43;;;;;;;27.30;11.38;;;;;;;3.84;67.95;99357.84;8912441;33;20217;-72
2021/04/05 03:28:46;;;;;;;36.20;15.60;;;;;;;3.93;67.69;99343.91;8886285;33;20749;-71
2021/04/05 03:33:52;;;;;;;31.80;13.23;;;;;;;4.06;67.51;99329.75;8911848;33;20214;-72
2021/04/05 03:38:57;;;;;;;16.47;8.07;;;;;;;4.12;67.36;99322.19;8911569;33;20232;-72
2021/04/05 03:44:05;;;;;;;29.50;13.73;;;;;;;3.89;68.20;99299.91;8915499;33;20230;-72
2021/04/05 03:49:22;;;;;;;29.77;11.70;;;;;;;4.11;67.83;99270.03;8916603;33;20260;-72
2021/04/05 03:54:31;;;;;;;26.60;11.70;;;;;;;4.04;68.23;99267.91;8916890;33;20282;-71
2021/04/05 03:59:39;;;;;;;23.77;10.03;;;;;;;3.93;68.56;99269.50;8916467;33;20227;-71
2021/04/05 04:04:54;;;;;;;34.60;13.83;;;;;;;3.91;68.95;99251.97;8891439;33;20264;-71
2021/04/05 04:09:58;;;;;;;29.67;11.53;;;;;;;4.20;68.22;99235.72;8916254;33;20225;-71
2021/04/05 04:15:02;;;;;;;24.33;11.75;;;;;;;4.00;68.85;99234.53;8916743;33;20286;-71
2021/04/05 04:20:09;;;;;;;29.63;14.70;;;;;;;4.04;69.13;99210.28;8916549;33;20741;-71
2021/04/05 04:25:14;;;;;;;36.50;15.68;;;;;;;3.95;69.39;99211.81;8916803;33;20222;-71
2021/04/05 04:30:31;;;;;;;28.45;12.85;;;;;;;4.15;68.92;99199.72;8915595;33;20237;-71
2021/04/05 04:35:36;;;;;;;30.95;15.05;;;;;;;4.10;69.04;99233.75;8916985;33;20986;-72
2021/04/05 04:40:39;;;;;;;35.47;14.75;;;;;;;4.10;69.39;99206.34;8915823;33;20225;-72
2021/04/05 04:45:42;;;;;;;31.83;14.97;;;;;;;4.04;69.31;99175.75;8890432;33;20217;-71
2021/04/05 04:50:45;;;;;;;37.45;15.40;;;;;;;4.32;69.03;99163.91;8915958;33;20229;-72
2021/04/05 04:55:48;;;;;;;34.25;16.63;;;;;;;4.37;69.48;99158.25;8915497;33;20813;-72
2021/04/05 05:00:50;;;;;;;26.83;14.02;;;;;;;4.14;70.46;99157.28;8915159;33;20228;-71
2021/04/05 05:05:52;;;;;;;28.63;13.73;;;;;;;3.92;71.22;99156.25;8915417;33;20263;-72
2021/04/05 05:10:56;;;;;;;24.20;10.43;;;;;;;4.32;69.98;99132.00;8914945;33;20233;-71
2021/04/05 05:15:58;;;;;;;41.15;16.40;;;;;;;4.25;70.38;99125.47;8915051;33;20260;-72
2021/04/05 05:21:04;;;;;;;44.40;18.30;;;;;;;4.17;71.30;99127.88;8888928;33;21548;-71
2021/04/05 05:26:09;;;;;;;30.63;14.80;;;;;;;4.08;72.79;99124.03;8914406;33;20233;-72
2021/04/05 05:31:13;;;;;;;40.17;18.17;;;;;;;3.84;74.58;99109.91;8913770;33;20221;-71
2021/04/05 05:36:16;;;;;;;40.47;16.57;;;;;;;3.95;75.62;99117.97;8913982;33;20206;-71
2021/04/05 05:41:29;;;;;;;39.10;16.80;;;;;;;3.73;77.16;99106.25;8913285;33;20233;-72
2021/04/05 05:46:43;;;;;;;45.15;19.48;;;;;;;3.87;77.96;99088.47;8914326;33;20218;-71
2021/04/05 05:52:05;;;;;;;39.90;19.17;;;;;;;3.59;79.78;99085.16;8888279;33;20217;-72
2021/04/05 05:57:14;;;;;;;41.05;15.90;;;;;;;3.46;80.85;99074.59;8914229;33;20218;-71
2021/04/05 06:02:33;;;;;;;48.60;20.80;;;;;;;3.64;80.66;99069.72;8913184;33;20774;-71
2021/04/05 06:07:50;;;;;;;48.90;20.73;;;;;;;3.68;81.02;99055.28;8913164;33;20856;-71
2021/04/05 06:13:13;;;;;;;53.60;22.10;;;;;;;3.52;81.74;99068.00;8888057;33;20224;-71
2021/04/05 06:18:25;;;;;;;46.22;18.40;;;;;;;3.85;80.72;99051.38;8915577;33;20248;-71
2021/04/05 06:23:40;;;;;;;43.70;17.57;;;;;;;3.57;81.45;99055.22;8913003;33;20229;-72
2021/04/05 06:28:54;;;;;;;27.23;11.60;;;;;;;3.41;81.67;99042.22;8913164;33;20236;-71
2021/04/05 06:34:11;;;;;;;40.00;18.55;;;;;;;3.54;81.54;99025.38;8913142;33;20229;-73
2021/04/05 06:39:21;;;;;;;32.00;13.02;;;;;;;3.60;81.56;99017.81;8914403;33;21377;-70
2021/04/05 06:44:51;;;;;;;50.27;22.50;;;;;;;3.95;80.33;99019.66;8921921;33;21352;-72
2021/04/05 06:50:06;;;;;;;52.10;22.30;;;;;;;3.97;80.67;99012.41;8912492;33;20636;-71
2021/04/05 06:55:27;;;;;;;40.07;14.37;;;;;;;3.79;81.75;99012.00;8912860;33;20232;-70
2021/04/05 07:00:39;;;;;;;46.13;21.30;;;;;;;3.67;81.68;99005.75;8914378;33;20229;-71
2021/04/05 07:06:02;;;;;;;42.07;19.90;;;;;;;3.65;82.25;99021.00;8886592;33;20229;-70
2021/04/05 07:11:16;;;;;;;38.93;17.13;;;;;;;3.69;83.12;99040.19;8902586;33;20329;-73
2021/04/05 07:16:35;;;;;;;30.90;15.60;;;;;;;3.54;84.51;99058.09;8909943;33;20217;-72
2021/04/05 07:21:48;;;;;;;13.20;6.77;;;;;;;3.42;83.19;99090.84;8914004;33;20222;-71
2021/04/05 07:27:03;;;;;;;10.57;5.03;;;;;;;3.03;82.91;99114.78;8913059;33;21387;-72
2021/04/05 07:32:23;;;;;;;4.93;2.60;;;;;;;2.84;82.14;99112.56;8852732;33;20229;-72
2021/04/05 07:37:33;;;;;;;4.20;1.67;;;;;;;3.30;82.33;99135.03;8913278;33;20225;-71
2021/04/05 07:42:46;;;;;;;6.77;4.23;;;;;;;2.89;81.15;99140.59;8916487;33;20222;-71
2021/04/05 07:48:03;;;;;;;3.23;2.63;;;;;;;2.95;82.16;99145.47;8897404;33;20671;-72
2021/04/05 07:53:19;;;;;;;2.03;1.30;;;;;;;2.50;81.40;99151.13;8914748;33;20744;-71
2021/04/05 07:58:30;;;;;;;1.00;0.90;;;;;;;2.13;81.95;99169.44;8916715;33;20232;-72
2021/04/05 08:03:49;;;;;;;1.40;1.30;;;;;;;2.23;82.01;99182.94;8900187;33;20328;-73
2021/04/05 08:08:57;;;;;;;1.67;1.10;;;;;;;2.14;82.21;99187.06;8913165;33;20243;-71
2021/04/05 08:14:14;;;;;;;1.43;1.33;;;;;;;2.25;82.41;99186.34;8916474;33;20234;-72
2021/04/05 08:19:30;;;;;;;1.93;1.50;;;;;;;2.55;82.02;99195.88;8888676;33;20237;-71
2021/04/05 08:24:42;;;;;;;2.00;1.10;;;;;;;2.29;81.52;99192.28;8923323;33;20285;-71
2021/04/05 08:29:55;;;;;;;1.43;1.00;;;;;;;2.22;81.10;99193.63;8886797;33;20381;-71
2021/04/05 08:35:18;;;;;;;1.40;1.30;;;;;;;2.50;81.32;99217.38;8912103;33;20217;-72
2021/04/05 08:40:24;;;;;;;1.33;1.23;;;;;;;2.39;80.79;99222.56;8878247;33;20214;-70
2021/04/05 08:45:38;;;;;;;2.10;1.50;;;;;;;2.80;80.82;99234.91;8914522;33;20229;-70
2021/04/05 08:50:45;;;;;;;1.87;1.67;;;;;;;3.22;81.51;99239.06;8909202;33;20734;-71
2021/04/05 08:55:49;;;;;;;2.47;1.97;;;;;;;3.33;80.61;99235.69;8916062;33;20221;-70
2021/04/05 09:00:58;;;;;;;1.00;1.00;;;;;;;3.31;78.36;99242.91;8910637;33;20225;-71
2021/04/05 09:06:08;;;;;;;4.03;1.40;;;;;;;3.40;78.53;99259.97;8864419;33;20232;-70
2021/04/05 09:11:14;;;;;;;3.33;1.47;;;;;;;3.77;76.42;99254.78;8913621;33;20236;-70
2021/04/05 09:16:48;;;;;;;3.83;1.50;;;;;;;3.35;74.45;99270.09;8903232;33;20218;-71
2021/04/05 09:22:26;;;;;;;4.07;1.50;;;;;;;2.76;73.03;99260.75;8914367;33;20225;-71
2021/04/05 09:28:16;;;;;;;6.77;2.07;;;;;;;2.94;74.81;99274.59;8857512;33;20238;-71
2021/04/05 09:34:10;;;;;;;3.57;1.57;;;;;;;3.00;76.59;99260.06;8792819;33;20226;-71
2021/04/05 09:39:34;;;;;;;6.57;3.40;;;;;;;3.66;76.42;99264.34;8805449;33;20301;-72
2021/04/05 09:44:58;;;;;;;7.60;2.90;;;;;;;3.77;73.91;99276.03;8808646;33;20217;-71
2021/04/05 09:50:11;;;;;;;6.70;2.83;;;;;;;3.80;70.88;99270.50;8913290;33;20232;-72
2021/04/05 09:55:19;;;;;;;2.80;2.33;;;;;;;3.54;73.12;99310.34;8913636;33;20745;-72
2021/04/05 10:00:22;;;;;;;2.63;1.97;;;;;;;2.50;74.15;99309.31;8912617;33;20232;-71
2021/04/05 10:05:26;;;;;;;2.57;1.27;;;;;;;2.35;77.37;99312.00;8912732;33;20224;-72
2021/04/05 10:10:36;;;;;;;5.00;1.50;;;;;;;2.71;72.75;99313.25;8912400;33;20259;-72
2021/04/05 10:15:38;;;;;;;2.07;1.50;;;;;;;2.93;71.54;99314.47;8894607;33;20218;-72
2021/04/05 10:20:41;;;;;;;5.40;1.63;;;;;;;3.06;70.27;99363.13;8905848;33;20218;-72
2021/04/05 10:25:44;;;;;;;1.03;1.00;;;;;;;1.53;72.58;99370.09;8891232;33;20227;-71
2021/04/05 10:30:56;;;;;;;1.40;0.77;;;;;;;1.18;75.84;99383.59;8881359;33;20218;-71
2021/04/05 10:36:04;;;;;;;3.97;1.23;;;;;;;1.95;74.07;99391.34;8896532;33;20725;-71
2021/04/05 10:41:09;;;;;;;3.30;1.60;;;;;;;2.89;72.88;99406.69;8873775;33;20221;-71
2021/04/05 10:46:15;;;;;;;2.17;1.70;;;;;;;3.11;71.29;99414.09;8913004;33;20229;-71
2021/04/05 10:51:23;;;;;;;3.67;1.20;;;;;;;2.76;69.58;99426.97;8914175;33;20232;-70
2021/04/05 10:56:27;;;;;;;2.03;1.30;;;;;;;2.37;70.19;99428.53;8916951;33;20217;-71
2021/04/05 11:01:32;;;;;;;8.70;1.57;;;;;;;2.86;68.50;99414.84;8916713;33;20235;-71
2021/04/05 11:06:35;;;;;;;2.57;1.40;;;;;;;3.03;68.76;99427.00;8915563;33;20221;-70
2021/04/05 11:11:43;;;;;;;3.00;1.67;;;;;;;3.79;65.87;99426.38;8920370;33;20225;-70
2021/04/05 11:16:50;;;;;;;2.47;1.57;;;;;;;4.04;67.68;99416.72;8916342;33;20256;-71
2021/04/05 11:21:54;;;;;;;8.63;1.60;;;;;;;3.00;60.52;99414.78;8890240;33;20229;-70
2021/04/05 11:26:58;;;;;;;2.50;1.67;;;;;;;3.47;61.17;99400.19;8912635;33;20738;-71
2021/04/05 11:32:02;;;;;;;8.93;1.70;;;;;;;3.74;60.74;99428.50;8915909;33;20221;-70
2021/04/05 11:37:12;;;;;;;5.00;1.30;;;;;;;2.51;60.81;99432.97;8914906;33;20225;-71
2021/04/05 11:42:17;;;;;;;6.93;1.90;;;;;;;1.52;68.18;99445.16;8899913;33;20222;-71
2021/04/05 11:47:21;;;;;;;3.23;2.10;;;;;;;2.19;65.17;99449.03;8888762;33;20225;-72
2021/04/05 11:52:30;;;;;;;2.70;1.13;;;;;;;3.81;65.27;99437.72;8916612;33;20228;-71
2021/04/05 11:57:39;;;;;;;6.40;2.47;;;;;;;4.54;62.75;99429.09;8916128;33;20214;-71
2021/04/05 12:02:48;;;;;;;3.90;1.60;;;;;;;5.92;56.12;99431.38;8887171;33;20229;-71
2021/04/05 12:07:57;;;;;;;6.68;1.30;;;;;;;6.99;55.61;99440.78;8796914;32;20406;-71
2021/04/05 12:13:08;;;;;;;7.87;1.63;;;;;;;6.24;54.75;99452.91;8853833;33;20237;-71
2021/04/05 12:18:11;;;;;;;3.75;1.50;;;;;;;6.26;51.58;99426.13;8855810;33;20222;-71
2021/04/05 12:23:16;;;;;;;9.73;1.98;;;;;;;7.00;47.26;99423.81;8855118;33;20226;-71
2021/04/05 12:28:20;;;;;;;11.15;4.50;;;;;;;7.38;53.16;99428.66;8854796;33;20226;-71
2021/04/05 12:33:26;;;;;;;6.20;2.35;;;;;;;7.17;49.56;99455.31;8853492;33;20238;-71
2021/04/05 12:38:32;;;;;;;5.20;2.78;;;;;;;5.21;51.76;99436.72;8828510;33;20233;-71
2021/04/05 12:43:38;;;;;;;5.85;1.73;;;;;;;6.66;46.31;99431.81;8821718;33;20264;-70
2021/04/05 12:48:44;;;;;;;3.58;2.08;;;;;;;5.09;49.36;99458.06;8854545;33;20645;-71
2021/04/05 12:53:49;;;;;;;7.33;2.10;;;;;;;3.03;54.99;99474.78;8854876;33;20214;-71
2021/04/05 12:58:55;;;;;;;6.80;2.70;;;;;;;1.27;61.75;99488.91;8855251;33;20257;-73
2021/04/05 13:04:03;;;;;;;7.77;3.60;;;;;;;1.94;61.58;99484.97;8829637;33;20372;-72
2021/04/05 13:09:10;;;;;;;4.43;1.50;;;;;;;3.24;56.66;99485.81;8855026;33;20230;-72
2021/04/05 13:14:19;;;;;;;3.97;1.40;;;;;;;7.13;46.30;99485.06;8853496;33;20241;-72
2021/04/05 13:19:30;;;;;;;3.17;1.10;;;;;;;8.64;37.92;99482.19;8859054;33;20349;-72
2021/04/05 13:24:34;;;;;;;5.22;1.20;;;;;;;6.93;37.79;99511.53;8852068;33;20222;-71
2021/04/05 13:29:45;;;;;;;5.35;1.35;;;;;;;8.00;39.62;99512.59;8853611;33;20233;-71
2021/04/05 13:34:47;;;;;;;1.13;0.98;;;;;;;9.87;36.22;99511.41;8854786;33;20229;-71
2021/04/05 13:39:52;;;;;;;1.60;1.00;;;;;;;9.49;37.04;99500.50;8854228;33;20218;-71
2021/04/05 13:45:08;;;;;;;5.45;1.10;;;;;;;9.08;39.12;99522.09;8828923;33;20653;-71
2021/04/05 13:50:13;;;;;;;2.70;1.00;;;;;;;7.30;37.46;99521.13;8853407;33;20234;-71
2021/04/05 13:55:21;;;;;;;1.08;0.93;;;;;;;8.45;37.73;99541.78;8853494;33;20230;-71
2021/04/05 14:00:27;;;;;;;1.23;0.90;;;;;;;6.83;39.62;99558.63;8852827;33;20230;-71
2021/04/05 14:05:35;;;;;;;1.58;1.27;;;;;;;7.84;38.34;99550.44;8850105;33;20920;-71
2021/04/05 14:10:40;;;;;;;2.83;1.08;;;;;;;6.29;38.08;99564.56;8851539;33;20633;-71
2021/04/05 14:15:43;;;;;;;0.77;0.77;;;;;;;6.92;40.86;99573.94;8848678;33;20222;-71
2021/04/05 14:20:47;;;;;;;1.92;1.20;;;;;;;6.11;38.05;99564.13;8823224;33;20364;-71
2021/04/05 14:25:53;;;;;;;0.98;0.85;;;;;;;6.95;39.35;99575.50;8821888;33;20735;-71
2021/04/05 14:31:14;;;;;;;1.52;0.95;;;;;;;5.96;39.42;99563.50;8852099;33;20248;-72
2021/04/05 14:36:22;;;;;;;1.75;1.00;;;;;;;6.35;37.89;99566.78;8851972;33;20214;-72
2021/04/05 14:41:33;;;;;;;2.45;1.30;;;;;;;7.09;38.84;99567.25;8852971;33;20218;-72
2021/04/05 14:46:45;;;;;;;1.30;0.98;;;;;;;8.24;37.22;99573.88;8780558;33;20230;-71
2021/04/05 14:51:52;;;;;;;1.50;1.10;;;;;;;8.67;34.53;99577.47;8774878;33;20214;-71
2021/04/05 14:56:57;;;;;;;2.58;1.30;;;;;;;7.30;41.41;99594.09;8794141;33;20836;-72
2021/04/05 15:02:06;;;;;;;3.28;1.00;;;;;;;6.97;41.59;99600.28;8793906;33;20894;-71
2021/04/05 15:07:14;;;;;;;1.38;0.80;;;;;;;5.55;42.61;99619.84;8793004;33;20223;-71
2021/04/05 15:12:22;;;;;;;1.17;1.07;;;;;;;4.76;48.63;99617.31;8789552;33;20234;-72
2021/04/05 15:17:32;;;;;;;0.60;0.60;;;;;;;3.41;52.11;99614.81;8789810;33;20720;-72
2021/04/05 15:22:36;;;;;;;4.77;1.13;;;;;;;2.85;53.12;99620.03;8789363;33;20828;-72
2021/04/05 15:27:40;;;;;;;4.33;1.10;;;;;;;4.78;50.32;99627.88;8789125;33;20227;-72
2021/04/05 15:32:47;;;;;;;2.40;1.83;;;;;;;3.54;49.64;99634.31;8851645;33;20295;-71
2021/04/05 15:37:55;;;;;;;1.70;1.60;;;;;;;4.52;47.84;99625.16;8853307;33;20218;-72
2021/04/05 15:43:03;;;;;;;3.57;1.10;;;;;;;4.52;47.88;99629.66;8857128;33;20238;-71
2021/04/05 15:48:11;;;;;;;1.40;1.30;;;;;;;3.90;46.79;99633.75;8857787;33;20233;-71
2021/04/05 15:53:15;;;;;;;2.30;1.40;;;;;;;4.35;47.48;99631.63;8856325;33;20218;-71
2021/04/05 15:58:28;;;;;;;3.37;1.47;;;;;;;4.36;47.21;99645.78;8861801;33;20309;-71
2021/04/05 16:03:51;;;;;;;1.60;1.50;;;;;;;4.22;48.60;99643.19;8831162;33;20226;-71
2021/04/05 16:09:10;;;;;;;6.50;3.10;;;;;;;4.90;47.59;99656.28;8856446;33;20226;-71
2021/04/05 16:14:18;;;;;;;3.80;2.37;;;;;;;4.42;48.21;99637.41;8844138;33;20612;-71
2021/04/05 16:19:27;;;;;;;3.57;2.37;;;;;;;4.31;48.78;99656.75;8797734;33;20231;-72
2021/04/05 16:24:35;;;;;;;1.30;1.20;;;;;;;3.28;49.58;99659.84;8797123;33;20241;-73
2021/04/05 16:29:42;;;;;;;4.87;1.07;;;;;;;2.95;48.43;99668.06;8839863;33;20234;-72
2021/04/05 16:34:49;;;;;;;4.40;1.43;;;;;;;1.92;54.63;99682.88;8830440;33;20226;-72
2021/04/05 16:40:00;;;;;;;1.80;1.57;;;;;;;1.75;54.71;99688.25;8854612;33;20237;-72
2021/04/05 16:45:05;;;;;;;2.73;1.80;;;;;;;1.97;54.21;99706.44;8840035;33;20235;-72
2021/04/05 16:50:14;;;;;;;1.70;1.37;;;;;;;1.86;50.79;99704.38;8856451;33;20222;-72
2021/04/05 16:55:21;;;;;;;5.00;2.00;;;;;;;2.22;50.12;99697.09;8855282;33;20241;-72
2021/04/05 17:00:27;;;;;;;1.50;1.40;;;;;;;2.73;47.19;99710.94;8855025;33;20234;-72
2021/04/05 17:05:34;;;;;;;2.37;1.47;;;;;;;1.80;48.45;99703.88;8855588;33;20226;-71
2021/04/05 17:10:46;;;;;;;2.63;1.33;;;;;;;2.15;47.96;99707.19;8827179;33;20256;-72
2021/04/05 17:15:49;;;;;;;7.50;3.90;;;;;;;1.80;50.61;99706.53;8854341;33;20757;-71
2021/04/05 17:21:02;;;;;;;4.10;2.20;;;;;;;2.01;49.19;99712.44;8855699;33;20235;-73
2021/04/05 17:26:15;;;;;;;1.00;1.00;;;;;;;1.50;50.12;99725.78;8812122;33;20237;-72
2021/04/05 17:31:19;;;;;;;5.13;2.50;;;;;;;1.32;54.17;99725.00;8795049;33;20281;-73
2021/04/05 17:36:27;;;;;;;5.47;2.80;;;;;;;0.77;56.48;99725.25;8795275;33;20237;-73
2021/04/05 17:41:37;;;;;;;3.30;1.50;;;;;;;0.87;57.29;99737.03;8795545;33;20227;-72
2021/04/05 17:47:05;;;;;;;4.13;2.00;;;;;;;0.84;57.64;99745.13;8795088;33;20298;-71
2021/04/05 17:52:14;;;;;;;4.87;1.80;;;;;;;0.61;59.04;99743.66;8794441;33;20716;-72
2021/04/05 17:57:24;;;;;;;3.53;2.10;;;;;;;0.05;59.70;99752.53;8803201;33;20246;-72
2021/04/05 18:02:41;;;;;;;5.97;3.47;;;;;;;-0.13;60.99;99756.94;8800759;33;20227;-72
2021/04/05 18:07:56;;;;;;;4.37;3.00;;;;;;;-0.70;63.01;99748.09;8818430;33;20245;-72
2021/04/05 18:13:10;;;;;;;4.63;4.13;;;;;;;-0.53;62.77;99756.97;8827935;33;20230;-72
2021/04/05 18:18:20;;;;;;;1.30;1.20;;;;;;;-1.08;64.47;99772.56;8848553;33;20257;-72
2021/04/05 18:23:55;;;;;;;4.80;2.27;;;;;;;-1.05;65.16;99758.41;8793749;33;20230;-72
2021/04/05 18:29:10;;;;;;;1.87;1.23;;;;;;;-1.28;66.20;99783.97;8851685;33;20222;-72
2021/04/05 18:34:21;;;;;;;5.07;3.20;;;;;;;-1.31;67.01;99772.69;8850331;33;20221;-71
2021/04/05 18:39:27;;;;;;;4.63;2.20;;;;;;;-1.23;66.94;99773.25;8848827;33;20229;-71
2021/04/05 18:44:29;;;;;;;2.43;1.87;;;;;;;-0.92;65.93;99785.97;8851742;33;20233;-72
2021/04/05 18:49:40;;;;;;;3.60;2.47;;;;;;;-0.61;65.40;99805.72;8828083;33;20234;-71
2021/04/05 18:54:51;;;;;;;2.23;1.80;;;;;;;-0.73;65.91;99804.47;8852237;33;20226;-72
2021/04/05 18:59:58;;;;;;;3.10;1.93;;;;;;;-0.80;66.42;99797.75;8851602;33;20226;-71
2021/04/05 19:05:09;;;;;;;1.20;1.10;;;;;;;-0.96;67.51;99787.00;8847060;33;20229;-72
2021/04/05 19:10:17;;;;;;;2.67;1.80;;;;;;;-1.17;68.01;99794.06;8820449;33;20739;-71
2021/04/05 19:15:32;;;;;;;2.30;1.67;;;;;;;-1.17;68.74;99794.06;8850577;33;20225;-71
2021/04/05 19:20:39;;;;;;;1.40;0.97;;;;;;;-1.29;68.70;99800.72;8805117;33;20230;-72
2021/04/05 19:26:05;;;;;;;12.20;2.03;;;;;;;-1.33;69.23;99785.94;8826163;33;20222;-72
2021/04/05 19:31:24;;;;;;;1.43;1.33;;;;;;;-1.14;68.93;99787.81;8855237;33;21295;-71
2021/04/05 19:36:35;;;;;;;2.07;1.57;;;;;;;-1.07;68.52;99778.69;8855241;33;20229;-71
2021/04/05 19:42:09;;;;;;;4.67;1.80;;;;;;;-1.11;69.15;99774.50;8855554;33;20226;-72
2021/04/05 19:47:42;;;;;;;2.87;1.43;;;;;;;-1.19;69.09;99788.00;8851891;33;20226;-71
2021/04/05 19:53:02;;;;;;;2.57;1.60;;;;;;;-0.97;68.94;99778.25;8813724;33;20644;-71
2021/04/05 19:58:42;;;;;;;3.33;1.33;;;;;;;-1.09;68.68;99784.06;8851713;33;20234;-72
2021/04/05 20:04:03;;;;;;;2.33;1.80;;;;;;;-0.86;68.33;99775.13;8748509;33;20696;-72
2021/04/05 20:09:26;;;;;;;3.93;2.13;;;;;;;-0.92;68.55;99764.00;8830545;33;20268;-72
2021/04/05 20:14:43;;;;;;;3.53;1.50;;;;;;;-0.87;68.17;99770.81;8856277;33;20218;-73
2021/04/05 20:19:57;;;;;;;1.70;1.43;;;;;;;-0.89;67.70;99753.34;8830094;33;20663;-72
2021/04/05 20:25:07;;;;;;;2.17;1.47;;;;;;;-0.94;68.53;99745.63;8854885;33;20230;-72
2021/04/05 20:30:25;;;;;;;3.03;1.73;;;;;;;-0.71;67.96;99749.91;8854901;33;20222;-72
2021/04/05 20:35:28;;;;;;;2.00;1.53;;;;;;;-0.81;69.05;99756.50;8836086;33;21436;-72
2021/04/05 20:40:48;;;;;;;2.80;2.00;;;;;;;-0.59;69.50;99730.88;8815692;33;20236;-72
2021/04/05 20:45:58;;;;;;;2.10;1.67;;;;;;;-1.06;73.02;99725.91;8855309;33;20632;-72
2021/04/05 20:51:08;;;;;;;1.47;1.23;;;;;;;-1.06;74.81;99725.06;8851563;33;20234;-73
2021/04/05 20:56:15;;;;;;;3.03;1.60;;;;;;;-1.21;75.30;99711.63;8832458;33;20226;-72
2021/04/05 21:01:23;;;;;;;4.17;1.67;;;;;;;-1.18;75.44;99714.13;8846248;33;20230;-71
2021/04/05 21:06:32;;;;;;;4.63;2.60;;;;;;;-0.96;75.61;99702.63;8854732;33;20762;-71
2021/04/05 21:11:42;;;;;;;2.10;1.87;;;;;;;-0.98;75.21;99686.91;8853192;33;20222;-72
2021/04/05 21:16:48;;;;;;;2.17;1.90;;;;;;;-1.03;76.25;99673.06;8854907;33;20226;-71
2021/04/05 21:21:54;;;;;;;1.77;1.33;;;;;;;-1.14;76.84;99679.75;8854559;33;20222;-72
2021/04/05 21:27:05;;;;;;;4.57;1.80;;;;;;;-1.33;77.95;99664.72;8854912;33;21768;-71
2021/04/05 21:32:16;;;;;;;2.77;1.30;;;;;;;-1.03;77.55;99665.16;8854517;33;20230;-71
2021/04/05 21:37:24;;;;;;;2.10;2.00;;;;;;;-0.99;77.65;99655.31;8853683;33;20218;-71
2021/04/05 21:42:35;;;;;;;2.93;2.30;;;;;;;-0.98;77.87;99643.88;8854194;33;20222;-71
2021/04/05 21:47:44;;;;;;;2.30;1.80;;;;;;;-0.99;77.67;99639.50;8854646;33;20769;-71
2021/04/05 21:52:51;;;;;;;2.43;1.90;;;;;;;-1.09;78.24;99630.31;8853864;33;20221;-71
2021/04/05 21:57:56;;;;;;;4.70;2.27;;;;;;;-1.24;77.86;99624.78;8854228;33;20294;-71
2021/04/05 22:03:01;;;;;;;3.57;2.70;;;;;;;-1.08;77.87;99624.97;8853623;33;20229;-71
2021/04/05 22:08:06;;;;;;;4.97;3.23;;;;;;;-1.19;78.01;99620.16;8853634;33;20381;-71
2021/04/05 22:13:10;;;;;;;6.57;2.63;;;;;;;-1.36;78.89;99612.16;8853574;33;20230;-71
2021/04/05 22:18:16;;;;;;;8.67;4.10;;;;;;;-1.28;78.97;99607.41;8853602;33;20333;-71
2021/04/05 22:23:26;;;;;;;4.47;2.87;;;;;;;-1.30;78.72;99603.97;8853360;33;20766;-71
2021/04/05 22:28:32;;;;;;;4.97;2.60;;;;;;;-1.28;78.73;99599.50;8828405;33;20241;-71
2021/04/05 22:33:36;;;;;;;4.33;3.40;;;;;;;-1.07;77.31;99591.53;8851627;33;20862;-71
2021/04/05 22:38:49;;;;;;;6.90;3.27;;;;;;;-1.13;77.43;99616.41;8853366;33;20222;-71
2021/04/05 22:43:54;;;;;;;4.77;3.30;;;;;;;-1.30;78.01;99585.53;8852738;33;20218;-71
2021/04/05 22:49:01;;;;;;;3.00;2.57;;;;;;;-1.20;77.78;99586.84;8856325;33;20256;-71
2021/04/05 22:54:04;;;;;;;7.23;3.13;;;;;;;-1.34;78.80;99586.59;8858060;33;20226;-71
2021/04/05 22:59:10;;;;;;;4.57;3.60;;;;;;;-1.24;79.09;99593.16;8833075;33;20222;-71
2021/04/05 23:04:13;;;;;;;7.67;3.77;;;;;;;-1.12;79.41;99589.13;8857377;33;20221;-71
2021/04/05 23:09:22;;;;;;;3.33;2.97;;;;;;;-1.04;79.36;99578.22;8857785;33;21463;-71
2021/04/05 23:14:34;;;;;;;4.60;3.07;;;;;;;-1.14;79.64;99582.22;8842911;33;20234;-71
2021/04/05 23:19:41;;;;;;;4.67;3.53;;;;;;;-0.80;78.68;99590.25;8798471;33;20230;-71
2021/04/05 23:24:53;;;;;;;3.23;2.37;;;;;;;-1.02;78.99;99579.00;8798170;33;20227;-71
2021/04/05 23:30:03;;;;;;;4.63;3.10;;;;;;;-0.95;78.95;99591.84;8798523;33;20266;-71
2021/04/05 23:35:11;;;;;;;5.80;2.90;;;;;;;-0.95;78.86;99596.25;8798363;33;20227;-72
2021/04/05 23:40:21;;;;;;;6.70;3.70;;;;;;;-0.97;78.83;99592.84;8798319;33;20235;-71
2021/04/05 23:45:25;;;;;;;5.40;3.40;;;;;;;-0.87;78.76;99588.84;8797856;33;21000;-71
2021/04/05 23:50:33;;;;;;;5.47;3.23;;;;;;;-0.68;78.57;99588.00;8798919;33;20242;-71
2021/04/05 23:55:39;;;;;;;3.67;2.77;;;;;;;-0.96;78.65;99591.91;8799086;33;20223;-71
